Hlavní strana
METAR-TAF:

METAR-TAF

Letiště :

Montichiari

Brescia, Itálie

zeměpisná šířka: 45-24-02N, zeměpisná délka: 010-18-59E, výška: 104 m

Aktuální stav počasí

Zpráva byla vytvořena před 49 minutami, v 19:50 UTC
Severoseverovýchodní vítr 2 kt
Teplota 3°C
Vlhkost vzduchu 56%
Tlak 1019 hPa
Viditelnost 10 km a více
Žádná oblačnost pod 1500 m, nevyskytují se cumulonimby.

METAR: LIPO 111950Z 03002KT CAVOK 03/M05 Q1019

Čas: 21:39 (20:39 UTC)

Předpověď počasí

Zpráva byla vytvořena před 3 hodinami a 39 minutami, v 17:00 UTC
Předpověď platná od 11 v 18 UTC do 12 v 18 UTC
Severoseverovýchodní vítr 5 kt
Viditelnost 10 km a více
Žádná oblačnost pod 1500 m, nevyskytují se cumulonimby.

TAF: LIPO 111700Z 1118/1218 03005KT CAVOK

Stav a předpovědi počasí z více než 4 000 letišť (zprávy METAR a TAF).

Červené a žluté tečky na mapě představují dostupné meteorologické stanice.

Když kurzor umístíte na tečku, zobrazí se název stanice.

Pak kliknutím zobrazíte stav a předpověď počasí.

Chcete-li změnit mapu, kliknutím na zelené tlačítko se znaménkem +mapu přiblížíte, kliknutím na zelené tlačítko se znaménkem – mapu oddálíte a kliknutím na zelené šipky přejdete na sousední mapy.


METAR-TAF: